createdAt,value
2023-01-01T00:03:34.030Z,1.49
2023-01-01T00:08:37.232Z,1.48
2023-01-01T00:13:42.301Z,1.45
2023-01-01T00:18:45.144Z,1.49
2023-01-01T00:23:48.267Z,1.56
2023-01-01T00:28:51.099Z,1.66
2023-01-01T00:33:55.790Z,1.81
2023-01-01T00:38:58.810Z,1.92
2023-01-01T00:44:01.817Z,2.05
2023-01-01T00:49:04.570Z,2.16
2023-01-01T00:54:07.760Z,2.26
2023-01-01T00:59:10.790Z,2.32
2023-01-01T01:04:14.249Z,2.36
2023-01-01T01:09:17.105Z,2.39
2023-01-01T01:14:20.247Z,2.44
2023-01-01T01:19:25.589Z,2.48
2023-01-01T01:24:28.586Z,2.50
2023-01-01T01:29:31.498Z,2.51
2023-01-01T01:34:34.969Z,2.47
2023-01-01T01:39:38.982Z,2.42
2023-01-01T01:45:06.858Z,2.31
2023-01-01T01:50:27.531Z,2.17
2023-01-01T01:55:33.915Z,2.03
2023-01-01T02:00:37.074Z,1.88
2023-01-01T02:05:41.529Z,1.77
2023-01-01T02:10:44.525Z,1.69
2023-01-01T02:16:20.784Z,1.70
2023-01-01T02:21:56.817Z,1.77
2023-01-01T02:27:21.078Z,1.79
2023-01-01T02:32:46.747Z,1.85
2023-01-01T02:37:55.771Z,1.94
2023-01-01T02:43:01.728Z,2.03
2023-01-01T02:48:07.634Z,2.10
2023-01-01T02:53:33.663Z,2.17
2023-01-01T02:59:06.007Z,2.25
2023-01-01T03:04:46.325Z,2.31
2023-01-01T03:10:15.461Z,2.35
2023-01-01T03:15:49.418Z,2.38
2023-01-01T03:20:59.708Z,2.44
2023-01-01T03:26:11.249Z,2.49
2023-01-01T03:31:21.676Z,2.58
2023-01-01T03:36:34.048Z,2.63
2023-01-01T03:42:01.423Z,2.72
2023-01-01T03:47:06.976Z,2.79
2023-01-01T03:52:35.854Z,2.88
2023-01-01T03:58:24.057Z,2.95
2023-01-01T04:03:31.224Z,3.04
2023-01-01T04:08:35.982Z,3.09
2023-01-01T04:13:48.542Z,3.15
2023-01-01T04:18:51.557Z,3.21
2023-01-01T04:23:54.463Z,3.25
2023-01-01T04:28:57.266Z,3.26
2023-01-01T04:34:00.268Z,3.22
2023-01-01T04:39:04.004Z,3.22
2023-01-01T04:44:07.056Z,3.19
2023-01-01T04:49:09.955Z,3.14
2023-01-01T04:54:12.980Z,3.11
2023-01-01T04:59:15.930Z,3.02
2023-01-01T05:04:18.790Z,2.95
2023-01-01T05:09:22.150Z,2.94
2023-01-01T05:14:25.029Z,2.95
2023-01-01T05:19:27.964Z,2.94
2023-01-01T05:24:31.531Z,2.96
2023-01-01T05:29:34.433Z,2.96
2023-01-01T05:39:39.584Z,3.01
2023-01-01T05:44:42.428Z,3.03
2023-01-01T05:49:45.759Z,3.06
2023-01-01T05:54:48.717Z,3.10
2023-01-01T05:59:52.751Z,3.11
2023-01-01T06:04:55.653Z,3.14
2023-01-01T06:09:58.547Z,3.13
2023-01-01T06:15:01.257Z,3.12
2023-01-01T06:20:04.543Z,3.12
2023-01-01T06:25:08.678Z,3.18
2023-01-01T06:30:11.803Z,3.17
2023-01-01T06:35:14.842Z,3.19
2023-01-01T06:40:17.789Z,3.20
2023-01-01T06:45:20.780Z,3.21
2023-01-01T06:50:23.694Z,3.20
2023-01-01T06:55:26.596Z,3.21
2023-01-01T07:00:29.560Z,3.18
2023-01-01T07:05:32.508Z,3.18
2023-01-01T07:10:35.585Z,3.16
2023-01-01T07:15:38.559Z,3.16
2023-01-01T07:20:42.428Z,3.19
2023-01-01T07:25:45.546Z,3.17
2023-01-01T07:30:49.394Z,3.18
2023-01-01T07:35:52.398Z,3.22
2023-01-01T07:40:55.817Z,3.28
2023-01-01T07:46:02.144Z,3.21
2023-01-01T07:51:05.394Z,3.20
2023-01-01T07:56:08.858Z,3.21
2023-01-01T08:01:14.741Z,3.24
2023-01-01T08:06:17.860Z,3.31
2023-01-01T08:11:21.173Z,3.39
2023-01-01T08:16:24.095Z,3.48
2023-01-01T08:21:27.303Z,3.57
2023-01-01T08:26:34.399Z,3.64
2023-01-01T08:31:37.349Z,3.70
2023-01-01T08:36:40.811Z,3.74
2023-01-01T08:41:43.919Z,3.81
2023-01-01T08:46:47.116Z,3.81
2023-01-01T08:51:50.265Z,3.89
2023-01-01T08:56:53.225Z,3.92
2023-01-01T09:01:56.420Z,3.96
2023-01-01T09:06:59.498Z,4.02
2023-01-01T09:12:08.387Z,4.07
2023-01-01T09:17:11.290Z,4.14
2023-01-01T09:22:14.439Z,4.15
2023-01-01T09:27:17.390Z,4.17
2023-01-01T09:32:20.339Z,4.20
2023-01-01T09:37:24.310Z,4.23
2023-01-01T09:42:48.590Z,4.27
2023-01-01T09:47:56.438Z,4.33
2023-01-01T09:53:08.016Z,4.40
2023-01-01T09:58:11.859Z,4.48
2023-01-01T10:03:32.773Z,4.53
2023-01-01T10:08:47.372Z,4.65
2023-01-01T10:13:51.994Z,4.78
2023-01-01T10:19:50.745Z,4.89
2023-01-01T10:25:06.306Z,5.06
2023-01-01T10:30:29.594Z,5.27
2023-01-01T10:35:40.451Z,5.44
2023-01-01T10:40:43.291Z,5.56
2023-01-01T10:45:53.649Z,5.70
2023-01-01T10:51:14.436Z,5.85
2023-01-01T10:56:21.647Z,5.98
2023-01-01T11:01:33.877Z,6.09
2023-01-01T11:06:47.728Z,6.24
2023-01-01T11:12:09.558Z,6.37
2023-01-01T11:17:32.776Z,6.47
2023-01-01T11:22:51.650Z,6.48
2023-01-01T11:28:21.979Z,6.54
2023-01-01T11:33:25.912Z,6.51
2023-01-01T11:38:30.569Z,6.51
2023-01-01T11:43:46.773Z,6.42
2023-01-01T11:48:50.492Z,6.37
2023-01-01T11:54:11.850Z,6.32
2023-01-01T11:59:18.728Z,6.32
2023-01-01T12:04:56.204Z,6.31
2023-01-01T12:10:13.985Z,6.40
2023-01-01T12:15:28.892Z,6.58
2023-01-01T12:20:59.724Z,6.81
2023-01-01T12:26:08.521Z,6.97
2023-01-01T12:31:49.174Z,7.15
2023-01-01T12:37:10.556Z,7.28
2023-01-01T12:42:25.141Z,7.23
2023-01-01T12:47:49.267Z,7.19
2023-01-01T12:53:28.760Z,7.17
2023-01-01T12:58:44.067Z,7.15
2023-01-01T13:03:56.826Z,7.15
2023-01-01T13:09:15.318Z,7.15
2023-01-01T13:14:18.602Z,7.02
2023-01-01T13:19:31.932Z,6.87
2023-01-01T13:24:34.910Z,6.70
2023-01-01T13:29:45.250Z,6.52
2023-01-01T13:35:02.836Z,6.39
2023-01-01T13:40:11.766Z,6.32
2023-01-01T13:52:05.290Z,6.22
2023-01-01T13:57:42.960Z,6.14
2023-01-01T14:02:58.818Z,6.08
2023-01-01T14:08:02.139Z,6.08
2023-01-01T14:13:10.669Z,6.08
2023-01-01T14:18:18.217Z,6.05
2023-01-01T14:23:32.653Z,6.06
2023-01-01T14:28:36.887Z,6.06
2023-01-01T14:33:40.363Z,6.06
2023-01-01T14:38:46.471Z,6.04
2023-01-01T14:43:53.610Z,6.08
2023-01-01T14:49:08.663Z,6.11
2023-01-01T14:54:19.932Z,6.14
2023-01-01T14:59:33.019Z,6.17
2023-01-01T15:04:36.200Z,6.21
2023-01-01T15:09:38.897Z,6.20
2023-01-01T15:14:45.777Z,6.23
2023-01-01T15:20:06.415Z,6.20
2023-01-01T15:25:16.127Z,6.17
2023-01-01T15:30:27.484Z,6.17
2023-01-01T15:35:33.362Z,6.19
2023-01-01T15:40:36.371Z,6.19
2023-01-01T15:45:42.014Z,6.23
2023-01-01T15:50:50.971Z,6.29
2023-01-01T15:55:56.791Z,6.31
2023-01-01T16:01:04.007Z,6.34
2023-01-01T16:06:07.940Z,6.36
2023-01-01T16:11:10.863Z,6.40
2023-01-01T16:16:32.755Z,6.47
2023-01-01T16:21:36.522Z,6.53
2023-01-01T16:26:39.558Z,6.54
2023-01-01T16:31:43.999Z,6.57
2023-01-01T16:36:47.896Z,6.62
2023-01-01T16:41:50.803Z,6.65
2023-01-01T16:46:53.880Z,6.68
2023-01-01T16:51:56.712Z,6.71
2023-01-01T16:56:59.806Z,6.70
2023-01-01T17:02:02.719Z,6.71
2023-01-01T17:07:05.671Z,6.69
2023-01-01T17:12:08.616Z,6.72
2023-01-01T17:17:11.539Z,6.71
2023-01-01T17:22:14.399Z,6.73
2023-01-01T17:27:17.279Z,6.74
2023-01-01T17:32:20.220Z,6.73
2023-01-01T17:37:23.149Z,6.75
2023-01-01T17:42:26.822Z,6.78
2023-01-01T17:47:33.228Z,6.80
2023-01-01T17:52:36.573Z,6.84
2023-01-01T17:57:39.548Z,6.85
2023-01-01T18:02:42.603Z,6.86
2023-01-01T18:07:45.846Z,6.88
2023-01-01T18:12:48.762Z,6.91
2023-01-01T18:17:51.760Z,6.90
2023-01-01T18:22:54.709Z,6.93
2023-01-01T18:27:57.938Z,6.95
2023-01-01T18:33:00.986Z,6.95
2023-01-01T18:38:03.943Z,6.98
2023-01-01T18:43:15.221Z,7.00
2023-01-01T18:48:21.596Z,7.02
2023-01-01T18:53:24.494Z,7.01
2023-01-01T18:58:28.075Z,7.01
2023-01-01T19:03:37.480Z,6.96
2023-01-01T19:08:44.323Z,6.96
2023-01-01T19:13:47.336Z,6.94
2023-01-01T19:18:51.700Z,6.96
2023-01-01T19:23:58.734Z,6.96
2023-01-01T19:29:21.568Z,6.99
2023-01-01T19:34:25.598Z,6.97
2023-01-01T19:39:29.234Z,6.96
2023-01-01T19:44:34.342Z,6.93
2023-01-01T19:49:37.867Z,6.87
2023-01-01T19:54:41.429Z,6.83
2023-01-01T19:59:44.339Z,6.80
2023-01-01T20:04:47.345Z,6.73
2023-01-01T20:09:50.455Z,6.69
2023-01-01T20:14:53.877Z,6.63
2023-01-01T20:19:57.145Z,6.61
2023-01-01T20:25:00.188Z,6.57
2023-01-01T20:30:03.295Z,6.50
2023-01-01T20:35:06.865Z,6.44
2023-01-01T20:40:11.822Z,6.41
2023-01-01T20:45:15.327Z,6.39
2023-01-01T20:50:18.270Z,6.36
2023-01-01T20:55:21.407Z,6.33
2023-01-01T21:00:24.295Z,6.30
2023-01-01T21:05:27.167Z,6.26
2023-01-01T21:10:30.559Z,6.21
2023-01-01T21:15:33.617Z,6.14
2023-01-01T21:20:40.720Z,6.07
2023-01-01T21:25:52.040Z,5.98
2023-01-01T21:30:57.475Z,5.88
2023-01-01T21:36:16.295Z,5.76
2023-01-01T21:41:24.128Z,5.69
2023-01-01T21:46:36.273Z,5.62
2023-01-01T21:52:01.327Z,5.56
2023-01-01T21:57:23.495Z,5.50
2023-01-01T22:02:38.459Z,5.49
2023-01-01T22:08:00.790Z,5.47
2023-01-01T22:13:16.902Z,5.44
2023-01-01T22:18:30.745Z,5.40
2023-01-01T22:23:41.963Z,5.32
2023-01-01T22:28:47.290Z,5.23
2023-01-01T22:33:53.214Z,5.11
2023-01-01T22:39:13.630Z,4.98
2023-01-01T22:44:16.337Z,4.86
2023-01-01T22:49:24.307Z,4.75
2023-01-01T22:54:27.261Z,4.65
2023-01-01T22:59:30.990Z,4.57
2023-01-01T23:04:35.197Z,4.44
2023-01-01T23:09:38.064Z,4.33
2023-01-01T23:14:59.654Z,4.19
2023-01-01T23:20:03.539Z,4.09
2023-01-01T23:25:10.303Z,4.03
2023-01-01T23:30:13.998Z,3.99
2023-01-01T23:35:17.273Z,4.00
2023-01-01T23:40:20.191Z,4.05
2023-01-01T23:45:23.085Z,4.16
2023-01-01T23:50:26.126Z,4.29
2023-01-01T23:55:30.911Z,4.47
